createdAt,value
2016-11-24T00:00:30.708Z,-90
2016-11-24T00:01:30.817Z,-89
2016-11-24T00:02:30.705Z,-89
2016-11-24T00:03:30.542Z,-89
2016-11-24T00:04:30.424Z,-89
2016-11-24T00:05:30.675Z,-89
2016-11-24T00:06:30.832Z,-88
2016-11-24T00:07:30.980Z,-89
2016-11-24T00:08:30.542Z,-89
2016-11-24T00:09:30.576Z,-89
2016-11-24T00:10:30.553Z,-89
2016-11-24T00:11:30.724Z,-89
2016-11-24T00:12:30.792Z,-89
2016-11-24T00:13:30.562Z,-90
2016-11-24T00:14:30.434Z,-89
2016-11-24T00:15:30.862Z,-89
2016-11-24T00:16:30.791Z,-89
2016-11-24T00:17:30.592Z,-89
2016-11-24T00:18:30.895Z,-89
2016-11-24T00:19:30.733Z,-89
2016-11-24T00:20:30.570Z,-88
2016-11-24T00:21:30.724Z,-89
2016-11-24T00:22:30.714Z,-90
2016-11-24T00:23:30.789Z,-89
2016-11-24T00:24:30.456Z,-89
2016-11-24T00:25:30.936Z,-89
2016-11-24T00:26:30.746Z,-89
2016-11-24T00:27:30.498Z,-88
2016-11-24T00:28:30.788Z,-88
2016-11-24T00:29:30.783Z,-89
2016-11-24T00:30:30.934Z,-90
2016-11-24T00:31:30.754Z,-89
2016-11-24T00:32:30.638Z,-90
2016-11-24T00:33:30.481Z,-89
2016-11-24T00:34:30.541Z,-89
2016-11-24T00:35:30.615Z,-89
2016-11-24T00:36:30.778Z,-89
2016-11-24T00:37:30.635Z,-89
2016-11-24T00:38:30.794Z,-89
2016-11-24T00:39:30.800Z,-89
2016-11-24T00:40:30.928Z,-88
2016-11-24T00:41:30.645Z,-89
2016-11-24T00:42:30.650Z,-89
2016-11-24T00:43:30.936Z,-90
2016-11-24T00:44:30.823Z,-89
2016-11-24T00:45:30.754Z,-88
2016-11-24T00:46:30.784Z,-89
2016-11-24T00:47:30.772Z,-88
2016-11-24T00:48:30.663Z,-89
2016-11-24T00:49:30.806Z,-89
2016-11-24T00:50:31.061Z,-89
2016-11-24T00:51:30.656Z,-89
2016-11-24T00:52:31.306Z,-89
2016-11-24T00:53:30.831Z,-89
2016-11-24T00:54:30.786Z,-89
2016-11-24T00:55:30.857Z,-88
2016-11-24T00:56:30.569Z,-89
2016-11-24T00:57:30.696Z,-88
2016-11-24T00:58:30.842Z,-89
2016-11-24T00:59:30.679Z,-89
2016-11-24T01:00:30.581Z,-89
2016-11-24T01:01:30.825Z,-89
2016-11-24T01:02:30.843Z,-89
2016-11-24T01:03:30.707Z,-89
2016-11-24T01:04:30.861Z,-89
2016-11-24T01:05:30.852Z,-90
2016-11-24T01:06:30.873Z,-90
2016-11-24T01:07:30.716Z,-87
2016-11-24T01:08:31.142Z,-90
2016-11-24T01:09:30.850Z,-89
2016-11-24T01:10:30.732Z,-89
2016-11-24T01:11:31.326Z,-89
2016-11-24T01:12:31.003Z,-88
2016-11-24T01:13:30.887Z,-89
2016-11-24T01:14:30.903Z,-90
2016-11-24T01:15:30.914Z,-89
2016-11-24T01:16:30.812Z,-90
2016-11-24T01:17:30.937Z,-90
2016-11-24T01:18:30.926Z,-88
2016-11-24T01:19:31.032Z,-89
2016-11-24T01:20:30.745Z,-88
2016-11-24T01:21:30.906Z,-89
2016-11-24T01:22:31.083Z,-89
2016-11-24T01:23:30.909Z,-89
2016-11-24T01:24:30.928Z,-90
2016-11-24T01:25:31.045Z,-89
2016-11-24T01:26:30.609Z,-89
2016-11-24T01:27:30.934Z,-89
2016-11-24T01:28:30.923Z,-89
2016-11-24T01:29:30.927Z,-89
2016-11-24T01:30:30.792Z,-89
2016-11-24T01:31:30.931Z,-88
2016-11-24T01:32:30.887Z,-89
2016-11-24T01:33:30.933Z,-89
2016-11-24T01:34:30.930Z,-89
2016-11-24T01:35:30.929Z,-89
2016-11-24T01:36:30.650Z,-89
2016-11-24T01:37:30.655Z,-89
2016-11-24T01:38:30.816Z,-89
2016-11-24T01:39:30.941Z,-90
2016-11-24T01:40:30.950Z,-89
2016-11-24T01:41:30.957Z,-89
2016-11-24T01:42:30.971Z,-90
2016-11-24T01:43:30.996Z,-89
2016-11-24T01:44:30.853Z,-89
2016-11-24T01:45:30.964Z,-89
2016-11-24T01:46:30.831Z,-89
2016-11-24T01:47:30.959Z,-89
2016-11-24T01:48:30.883Z,-89
2016-11-24T01:49:31.043Z,-90
2016-11-24T01:50:30.974Z,-90
2016-11-24T01:51:30.984Z,-89
2016-11-24T01:52:30.982Z,-89
2016-11-24T01:53:31.145Z,-89
2016-11-24T01:54:30.872Z,-89
2016-11-24T01:55:31.151Z,-90
2016-11-24T01:56:30.993Z,-89
2016-11-24T01:57:30.998Z,-90
2016-11-24T01:58:31.024Z,-90
2016-11-24T01:59:30.742Z,-89
2016-11-24T02:00:30.877Z,-89
2016-11-24T02:01:31.015Z,-90
2016-11-24T02:02:31.005Z,-90
2016-11-24T02:03:31.175Z,-90
2016-11-24T02:04:30.768Z,-90
2016-11-24T02:05:30.868Z,-89
2016-11-24T02:06:30.906Z,-89
2016-11-24T02:07:31.016Z,-89
2016-11-24T02:08:31.159Z,-90
2016-11-24T02:09:31.040Z,-89
2016-11-24T02:10:30.910Z,-89
2016-11-24T02:11:30.897Z,-90
2016-11-24T02:12:31.031Z,-89
2016-11-24T02:13:30.753Z,-88
2016-11-24T02:14:31.183Z,-87
2016-11-24T02:15:30.938Z,-88
2016-11-24T02:16:30.917Z,-89
2016-11-24T02:17:31.067Z,-89
2016-11-24T02:18:30.911Z,-90
2016-11-24T02:19:30.774Z,-90
2016-11-24T02:20:31.255Z,-89
2016-11-24T02:21:30.770Z,-89
2016-11-24T02:22:30.788Z,-89
2016-11-24T02:23:31.055Z,-89
2016-11-24T02:24:30.936Z,-90
2016-11-24T02:25:30.933Z,-89
2016-11-24T02:26:30.965Z,-89
2016-11-24T02:27:31.220Z,-90
2016-11-24T02:28:30.790Z,-89
2016-11-24T02:29:31.229Z,-90
2016-11-24T02:30:30.941Z,-90
2016-11-24T02:31:31.434Z,-89
2016-11-24T02:32:30.810Z,-90
2016-11-24T02:33:30.992Z,-90
2016-11-24T02:34:31.091Z,-89
2016-11-24T02:35:31.102Z,-90
2016-11-24T02:36:30.985Z,-89
2016-11-24T02:37:30.992Z,-90
2016-11-24T02:38:31.268Z,-89
2016-11-24T02:39:31.111Z,-90
2016-11-24T02:40:30.959Z,-89
2016-11-24T02:41:31.101Z,-90
2016-11-24T02:42:30.847Z,-88
2016-11-24T02:43:30.997Z,-90
2016-11-24T02:44:31.128Z,-90
2016-11-24T02:45:31.017Z,-90
2016-11-24T02:46:31.119Z,-91
2016-11-24T02:47:31.303Z,-89
2016-11-24T02:48:30.990Z,-90
2016-11-24T02:49:31.147Z,-89
2016-11-24T02:50:31.236Z,-89
2016-11-24T02:51:31.157Z,-90
2016-11-24T02:52:31.171Z,-89
2016-11-24T02:53:31.158Z,-90
2016-11-24T02:54:31.284Z,-90
2016-11-24T02:55:31.036Z,-90
2016-11-24T02:56:31.320Z,-90
2016-11-24T02:57:31.155Z,-90
2016-11-24T02:58:31.038Z,-90
2016-11-24T02:59:31.018Z,-90
2016-11-24T03:00:31.316Z,-88
2016-11-24T03:01:31.025Z,-89
2016-11-24T03:02:31.014Z,-90
2016-11-24T03:03:31.204Z,-90
2016-11-24T03:04:31.181Z,-89
2016-11-24T03:05:31.344Z,-89
2016-11-24T03:06:31.059Z,-90
2016-11-24T03:07:31.058Z,-90
2016-11-24T03:08:31.128Z,-90
2016-11-24T03:09:31.188Z,-90
2016-11-24T03:10:31.197Z,-90
2016-11-24T03:11:31.043Z,-90
2016-11-24T03:12:31.192Z,-90
2016-11-24T03:13:31.365Z,-90
2016-11-24T03:14:31.088Z,-89
2016-11-24T03:15:31.069Z,-90
2016-11-24T03:16:31.083Z,-89
2016-11-24T03:17:31.353Z,-90
2016-11-24T03:18:30.936Z,-90
2016-11-24T03:19:31.492Z,-90
2016-11-24T03:20:31.080Z,-90
2016-11-24T03:21:31.170Z,-89
2016-11-24T03:22:31.373Z,-90
2016-11-24T03:23:31.095Z,-90
2016-11-24T03:24:31.597Z,-90
2016-11-24T03:25:31.096Z,-91
2016-11-24T03:26:31.143Z,-89
2016-11-24T03:27:31.247Z,-89
2016-11-24T03:28:31.398Z,-90
2016-11-24T03:29:31.253Z,-90
2016-11-24T03:30:31.265Z,-90
2016-11-24T03:31:31.118Z,-90
2016-11-24T03:32:31.127Z,-89
2016-11-24T03:33:31.136Z,-90
2016-11-24T03:34:31.257Z,-90
2016-11-24T03:35:31.166Z,-89
2016-11-24T03:36:31.281Z,-90
2016-11-24T03:37:31.120Z,-89
2016-11-24T03:38:31.285Z,-89
2016-11-24T03:39:31.438Z,-89
2016-11-24T03:40:31.320Z,-90
2016-11-24T03:41:31.286Z,-89
2016-11-24T03:42:31.169Z,-88
2016-11-24T03:43:31.004Z,-91
2016-11-24T03:44:31.145Z,-90
2016-11-24T03:45:31.159Z,-89
2016-11-24T03:46:31.170Z,-90
2016-11-24T03:47:31.307Z,-90
2016-11-24T03:48:31.172Z,-90
2016-11-24T03:49:31.321Z,-90
2016-11-24T03:50:31.332Z,-90
2016-11-24T03:51:31.190Z,-89
2016-11-24T03:52:31.394Z,-90
2016-11-24T03:53:31.188Z,-90
2016-11-24T03:54:31.510Z,-90
2016-11-24T03:55:31.052Z,-90
2016-11-24T03:56:31.504Z,-90
2016-11-24T03:57:31.188Z,-89
2016-11-24T03:58:31.334Z,-90
2016-11-24T03:59:31.201Z,-90
2016-11-24T04:00:31.326Z,-90
2016-11-24T04:01:31.179Z,-90
2016-11-24T04:02:31.231Z,-90
2016-11-24T04:03:31.483Z,-90
2016-11-24T04:04:31.213Z,-90
2016-11-24T04:05:31.345Z,-90
2016-11-24T04:06:31.061Z,-90
2016-11-24T04:07:31.523Z,-90
2016-11-24T04:08:31.514Z,-90
2016-11-24T04:09:31.534Z,-90
2016-11-24T04:10:31.228Z,-89
2016-11-24T04:11:31.351Z,-89
2016-11-24T04:12:31.123Z,-90
2016-11-24T04:13:31.584Z,-89
2016-11-24T04:14:31.105Z,-90
2016-11-24T04:15:31.375Z,-90
2016-11-24T04:16:31.384Z,-90
2016-11-24T04:17:31.249Z,-90
2016-11-24T04:18:31.124Z,-90
2016-11-24T04:19:31.384Z,-90
2016-11-24T04:20:31.261Z,-91
2016-11-24T04:21:31.397Z,-90
2016-11-24T04:22:31.132Z,-89
2016-11-24T04:23:31.318Z,-90
2016-11-24T04:24:31.125Z,-90
2016-11-24T04:25:31.299Z,-90
2016-11-24T04:26:31.269Z,-90
2016-11-24T04:27:31.416Z,-90
2016-11-24T04:28:31.602Z,-90
2016-11-24T04:29:31.417Z,-90
2016-11-24T04:30:31.575Z,-90
2016-11-24T04:31:31.435Z,-90
2016-11-24T04:32:31.294Z,-90
2016-11-24T04:33:31.290Z,-90
2016-11-24T04:34:31.173Z,-90
2016-11-24T04:35:31.424Z,-90
2016-11-24T04:36:31.440Z,-90
2016-11-24T04:37:31.313Z,-89
2016-11-24T04:38:31.295Z,-90
2016-11-24T04:39:31.318Z,-89
2016-11-24T04:40:31.153Z,-90
2016-11-24T04:41:31.452Z,-89
2016-11-24T04:42:31.309Z,-90
2016-11-24T04:43:31.309Z,-90
2016-11-24T04:44:31.537Z,-90
2016-11-24T04:45:31.605Z,-90
2016-11-24T04:46:31.185Z,-90
2016-11-24T04:47:31.192Z,-90
2016-11-24T04:48:31.465Z,-90
2016-11-24T04:49:31.346Z,-90
2016-11-24T04:50:31.510Z,-90
2016-11-24T04:51:31.359Z,-90
2016-11-24T04:52:31.497Z,-90
2016-11-24T04:53:31.495Z,-88
2016-11-24T04:54:31.441Z,-89
2016-11-24T04:55:31.518Z,-89
2016-11-24T04:56:31.273Z,-89
2016-11-24T04:57:31.511Z,-90
2016-11-24T04:58:31.497Z,-90
2016-11-24T04:59:31.357Z,-90
2016-11-24T05:00:31.478Z,-90
2016-11-24T05:01:31.545Z,-90
2016-11-24T05:02:31.381Z,-89
2016-11-24T05:03:31.661Z,-90
2016-11-24T05:04:31.510Z,-91
2016-11-24T05:05:31.537Z,-90
2016-11-24T05:06:31.539Z,-90
2016-11-24T05:07:31.532Z,-90
2016-11-24T05:08:31.521Z,-90
2016-11-24T05:09:31.395Z,-90
2016-11-24T05:10:31.388Z,-89
2016-11-24T05:11:31.535Z,-90
2016-11-24T05:12:31.253Z,-89
2016-11-24T05:13:31.401Z,-91
2016-11-24T05:14:31.538Z,-90
2016-11-24T05:15:31.543Z,-89
2016-11-24T05:16:31.574Z,-91
2016-11-24T05:17:31.689Z,-90
2016-11-24T05:18:31.549Z,-90
2016-11-24T05:19:31.560Z,-89
2016-11-24T05:20:31.553Z,-90
2016-11-24T05:21:31.715Z,-89
2016-11-24T05:22:31.582Z,-89
2016-11-24T05:23:31.568Z,-90
2016-11-24T05:24:31.441Z,-89
2016-11-24T05:25:31.618Z,-90
2016-11-24T05:26:31.562Z,-90
2016-11-24T05:27:31.309Z,-89
2016-11-24T05:28:31.438Z,-90
2016-11-24T05:29:31.301Z,-89
2016-11-24T05:30:31.586Z,-90
2016-11-24T05:31:31.452Z,-89
2016-11-24T05:32:31.477Z,-90
2016-11-24T05:33:31.323Z,-90
2016-11-24T05:34:31.607Z,-90
2016-11-24T05:35:31.449Z,-90
2016-11-24T05:36:31.473Z,-89
2016-11-24T05:37:31.334Z,-90
2016-11-24T05:38:31.493Z,-90
2016-11-24T05:39:31.622Z,-89
2016-11-24T05:40:31.612Z,-90
2016-11-24T05:41:31.471Z,-90
2016-11-24T05:42:31.614Z,-89
2016-11-24T05:43:31.502Z,-89
2016-11-24T05:44:31.346Z,-90
2016-11-24T05:45:31.505Z,-90
2016-11-24T05:46:31.647Z,-90
2016-11-24T05:47:31.628Z,-90
2016-11-24T05:48:31.402Z,-90
2016-11-24T05:49:31.496Z,-89
2016-11-24T05:50:31.347Z,-90
2016-11-24T05:51:31.659Z,-89
2016-11-24T05:52:31.654Z,-90
2016-11-24T05:53:31.645Z,-89
2016-11-24T05:54:31.393Z,-90
2016-11-24T05:55:31.660Z,-90
2016-11-24T05:56:31.384Z,-90
2016-11-24T05:57:31.539Z,-89
2016-11-24T05:58:31.719Z,-90
2016-11-24T05:59:31.814Z,-89
2016-11-24T06:00:31.568Z,-90
2016-11-24T06:01:31.392Z,-89
2016-11-24T06:02:31.755Z,-89
2016-11-24T06:03:31.679Z,-90
2016-11-24T06:04:31.564Z,-89
2016-11-24T06:05:31.699Z,-89
2016-11-24T06:06:31.705Z,-89
2016-11-24T06:07:31.706Z,-90
2016-11-24T06:08:31.558Z,-90
2016-11-24T06:09:31.555Z,-90
2016-11-24T06:10:31.735Z,-90
2016-11-24T06:11:31.841Z,-90
2016-11-24T06:12:31.580Z,-90
2016-11-24T06:13:31.579Z,-90
2016-11-24T06:14:31.458Z,-88
2016-11-24T06:15:31.709Z,-89
2016-11-24T06:16:31.564Z,-89
2016-11-24T06:17:31.848Z,-90
2016-11-24T06:18:31.966Z,-90
2016-11-24T06:19:31.726Z,-89
2016-11-24T06:20:31.606Z,-90
2016-11-24T06:21:31.739Z,-90
2016-11-24T06:22:31.746Z,-89
2016-11-24T06:23:31.743Z,-90
2016-11-24T06:24:31.592Z,-90
2016-11-24T06:25:31.597Z,-89
2016-11-24T06:26:31.647Z,-89
2016-11-24T06:27:31.882Z,-89
2016-11-24T06:28:31.736Z,-89
2016-11-24T06:29:31.677Z,-90
2016-11-24T06:30:31.766Z,-90
2016-11-24T06:31:31.789Z,-89
2016-11-24T06:32:31.616Z,-89
2016-11-24T06:33:31.793Z,-89
2016-11-24T06:34:31.640Z,-90
2016-11-24T06:35:31.615Z,-89
2016-11-24T06:36:31.820Z,-90
2016-11-24T06:37:31.785Z,-89
2016-11-24T06:38:31.778Z,-89
2016-11-24T06:39:31.912Z,-89
2016-11-24T06:40:31.654Z,-90
2016-11-24T06:41:31.640Z,-89
2016-11-24T06:42:31.964Z,-89
2016-11-24T06:43:31.639Z,-89
2016-11-24T06:44:31.651Z,-89
2016-11-24T06:45:31.668Z,-90
2016-11-24T06:46:31.663Z,-89
2016-11-24T06:47:32.017Z,-89
2016-11-24T06:48:31.944Z,-89
2016-11-24T06:49:31.815Z,-89
2016-11-24T06:50:31.535Z,-89
2016-11-24T06:51:31.571Z,-89
2016-11-24T06:52:31.842Z,-89
2016-11-24T06:53:31.689Z,-88
2016-11-24T06:54:31.839Z,-90
2016-11-24T06:55:31.847Z,-89
2016-11-24T06:56:31.727Z,-89
2016-11-24T06:57:31.695Z,-89
2016-11-24T06:58:31.900Z,-89
2016-11-24T06:59:31.990Z,-89
2016-11-24T07:00:31.853Z,-89
2016-11-24T07:01:31.794Z,-89
2016-11-24T07:02:31.875Z,-89
2016-11-24T07:03:31.764Z,-90
2016-11-24T07:04:31.813Z,-89
2016-11-24T07:05:31.870Z,-90
2016-11-24T07:06:31.858Z,-91
2016-11-24T07:07:31.963Z,-95
2016-11-24T07:08:31.831Z,-96
2016-11-24T07:09:31.734Z,-96
2016-11-24T07:10:31.881Z,-96
2016-11-24T07:11:31.776Z,-95
2016-11-24T07:12:32.039Z,-96
2016-11-24T07:13:31.683Z,-96
2016-11-24T07:14:31.823Z,-96
2016-11-24T07:15:31.891Z,-95
2016-11-24T07:16:31.923Z,-95
2016-11-24T07:17:31.604Z,-96
2016-11-24T07:18:31.762Z,-96
2016-11-24T07:19:31.826Z,-96
2016-11-24T07:20:31.902Z,-95
2016-11-24T07:21:31.784Z,-96
2016-11-24T07:22:31.949Z,-96
2016-11-24T07:23:31.770Z,-95
2016-11-24T07:24:31.652Z,-95
2016-11-24T07:25:31.923Z,-96
2016-11-24T07:26:31.780Z,-96
2016-11-24T07:27:31.787Z,-95
2016-11-24T07:28:31.796Z,-95
2016-11-24T07:29:31.966Z,-95
2016-11-24T07:30:31.825Z,-96
2016-11-24T07:31:31.743Z,-95
2016-11-24T07:32:31.951Z,-95
2016-11-24T07:33:32.107Z,-96
2016-11-24T07:34:32.076Z,-96
2016-11-24T07:35:32.011Z,-95
2016-11-24T07:36:31.665Z,-94
2016-11-24T07:37:31.994Z,-89
2016-11-24T07:38:31.830Z,-88
2016-11-24T07:39:31.957Z,-95
2016-11-24T07:40:31.970Z,-96
2016-11-24T07:41:34.031Z,-95
2016-11-24T07:42:31.968Z,-96
2016-11-24T07:43:32.001Z,-96
2016-11-24T07:44:31.978Z,-95
2016-11-24T07:45:31.920Z,-96
2016-11-24T07:46:31.968Z,-96
2016-11-24T07:47:31.874Z,-95
2016-11-24T07:48:32.195Z,-96
2016-11-24T07:49:31.897Z,-96
2016-11-24T07:50:32.086Z,-95
2016-11-24T07:51:31.913Z,-95
2016-11-24T07:52:31.838Z,-96
2016-11-24T07:53:31.706Z,-95
2016-11-24T07:54:31.755Z,-96
2016-11-24T07:55:31.878Z,-95
2016-11-24T07:56:31.900Z,-95
2016-11-24T07:57:32.345Z,-95
2016-11-24T07:58:31.921Z,-95
2016-11-24T07:59:31.988Z,-96
2016-11-24T08:00:32.428Z,-95
2016-11-24T08:01:32.225Z,-96
2016-11-24T08:02:31.992Z,-96
2016-11-24T08:03:31.771Z,-96
2016-11-24T08:04:32.269Z,-96
2016-11-24T08:05:32.037Z,-96
2016-11-24T08:06:32.243Z,-96
2016-11-24T08:07:32.044Z,-96
2016-11-24T08:08:31.941Z,-96
2016-11-24T08:09:31.893Z,-96
2016-11-24T08:10:31.832Z,-96
2016-11-24T08:11:32.531Z,-96
2016-11-24T08:12:32.327Z,-96
2016-11-24T08:13:32.077Z,-96
2016-11-24T08:14:32.133Z,-96
2016-11-24T08:15:31.994Z,-96
2016-11-24T08:16:32.098Z,-96
2016-11-24T08:17:31.853Z,-96
2016-11-24T08:18:32.343Z,-96
2016-11-24T08:19:32.587Z,-96
2016-11-24T08:20:36.973Z,-96
2016-11-24T08:21:31.921Z,-96
2016-11-24T08:22:33.781Z,-94
2016-11-24T08:23:32.737Z,-95
2016-11-24T08:24:32.292Z,-95
2016-11-24T08:25:32.357Z,-96
2016-11-24T08:26:31.951Z,-96
2016-11-24T08:27:32.049Z,-94
2016-11-24T08:28:32.718Z,-95
2016-11-24T08:29:32.216Z,-95
2016-11-24T08:30:31.830Z,-95
2016-11-24T08:31:32.582Z,-95
2016-11-24T08:32:32.183Z,-95
2016-11-24T08:33:32.592Z,-94
2016-11-24T08:34:32.114Z,-95
2016-11-24T08:35:32.438Z,-94
2016-11-24T08:36:32.102Z,-95
2016-11-24T08:37:32.150Z,-95
2016-11-24T08:38:32.394Z,-94
2016-11-24T08:39:32.181Z,-94
2016-11-24T08:40:32.316Z,-94
2016-11-24T08:41:32.162Z,-95
2016-11-24T08:42:32.200Z,-95
2016-11-24T08:43:32.357Z,-95
2016-11-24T08:44:31.916Z,-94
2016-11-24T08:45:32.460Z,-93
2016-11-24T08:46:32.135Z,-93
2016-11-24T08:47:35.203Z,-94
2016-11-24T08:48:31.919Z,-94
2016-11-24T08:49:31.981Z,-94
2016-11-24T08:50:32.248Z,-95
2016-11-24T08:51:32.130Z,-94
2016-11-24T08:52:32.044Z,-94
2016-11-24T08:53:31.992Z,-93
2016-11-24T08:54:31.941Z,-93
2016-11-24T08:55:32.103Z,-94
2016-11-24T08:56:32.158Z,-94
2016-11-24T08:57:32.314Z,-94
2016-11-24T08:58:32.037Z,-94
2016-11-24T08:59:32.295Z,-94
2016-11-24T09:00:32.265Z,-94
2016-11-24T09:01:32.243Z,-95
2016-11-24T09:02:32.246Z,-94
2016-11-24T09:03:32.438Z,-94
2016-11-24T09:04:32.136Z,-95
2016-11-24T09:05:32.255Z,-94
2016-11-24T09:06:32.369Z,-94
2016-11-24T09:07:32.323Z,-94
2016-11-24T09:08:32.236Z,-93
2016-11-24T09:09:32.088Z,-94
2016-11-24T09:10:32.437Z,-94
2016-11-24T09:11:32.376Z,-94
2016-11-24T09:12:32.342Z,-94
2016-11-24T09:13:32.102Z,-94
2016-11-24T09:14:32.385Z,-94
2016-11-24T09:15:32.102Z,-96
2016-11-24T09:16:32.671Z,-93
2016-11-24T09:17:32.510Z,-94
2016-11-24T09:18:32.277Z,-95
2016-11-24T09:19:32.018Z,-94
2016-11-24T09:20:32.509Z,-94
2016-11-24T09:21:31.991Z,-95
2016-11-24T09:22:32.243Z,-94
2016-11-24T09:23:32.180Z,-94
2016-11-24T09:24:32.189Z,-93
2016-11-24T09:25:32.036Z,-94
2016-11-24T09:26:32.139Z,-94
2016-11-24T09:27:32.250Z,-93
2016-11-24T09:28:32.478Z,-94
2016-11-24T09:29:32.168Z,-95
2016-11-24T09:30:32.266Z,-93
2016-11-24T09:31:32.086Z,-94
2016-11-24T09:32:32.402Z,-95
2016-11-24T09:33:32.213Z,-94
2016-11-24T09:34:33.078Z,-95
2016-11-24T09:35:32.278Z,-95
2016-11-24T09:36:32.310Z,-94
2016-11-24T09:37:32.388Z,-94
2016-11-24T09:38:32.322Z,-94
2016-11-24T09:39:32.299Z,-94
2016-11-24T09:40:32.348Z,-94
2016-11-24T09:41:33.559Z,-93
2016-11-24T09:42:32.197Z,-94
2016-11-24T09:43:32.265Z,-95
2016-11-24T09:44:32.510Z,-95
2016-11-24T09:45:32.466Z,-95
2016-11-24T09:46:32.301Z,-95
2016-11-24T09:47:32.384Z,-94
2016-11-24T09:48:32.237Z,-93
2016-11-24T09:49:32.242Z,-94
2016-11-24T09:50:32.644Z,-95
2016-11-24T09:51:32.356Z,-95
2016-11-24T09:52:32.392Z,-94
2016-11-24T09:53:33.506Z,-95
2016-11-24T09:54:32.731Z,-94
2016-11-24T09:55:32.193Z,-94
2016-11-24T09:56:32.537Z,-93
2016-11-24T09:57:32.469Z,-94
2016-11-24T09:58:32.674Z,-95
2016-11-24T09:59:32.768Z,-94
2016-11-24T10:00:32.736Z,-94
2016-11-24T10:01:33.121Z,-92
2016-11-24T10:02:33.027Z,-94
2016-11-24T10:03:32.286Z,-94
2016-11-24T10:04:33.996Z,-94
2016-11-24T10:05:32.531Z,-94
2016-11-24T10:06:32.448Z,-94
2016-11-24T10:07:32.935Z,-95
2016-11-24T10:08:32.544Z,-94
2016-11-24T10:09:32.406Z,-94
2016-11-24T10:10:32.463Z,-95
2016-11-24T10:11:32.553Z,-95
2016-11-24T10:12:32.522Z,-94
2016-11-24T10:13:32.330Z,-93
2016-11-24T10:14:33.298Z,-94
2016-11-24T10:15:32.854Z,-92
2016-11-24T10:16:32.475Z,-89
2016-11-24T10:17:32.376Z,-93
2016-11-24T10:18:32.703Z,-93
2016-11-24T10:19:34.106Z,-94
2016-11-24T10:20:32.315Z,-96
2016-11-24T10:21:32.718Z,-95
2016-11-24T10:22:33.252Z,-94
2016-11-24T10:23:32.375Z,-93
2016-11-24T10:24:32.562Z,-93
2016-11-24T10:25:32.467Z,-92
2016-11-24T10:26:32.383Z,-93
2016-11-24T10:27:32.603Z,-94
2016-11-24T10:28:32.490Z,-93
2016-11-24T10:29:32.168Z,-95
2016-11-24T10:30:33.491Z,-96
2016-11-24T10:31:32.476Z,-95
2016-11-24T10:32:32.316Z,-95
2016-11-24T10:33:32.234Z,-94
2016-11-24T10:34:32.387Z,-96
2016-11-24T10:35:32.500Z,-95
2016-11-24T10:36:36.527Z,-95
2016-11-24T10:37:32.747Z,-95
2016-11-24T10:38:32.744Z,-93
2016-11-24T10:39:33.754Z,-96
2016-11-24T10:40:32.689Z,-96
2016-11-24T10:41:33.994Z,-94
2016-11-24T10:42:32.974Z,-95
2016-11-24T10:43:32.644Z,-96
2016-11-24T10:44:33.184Z,-95
2016-11-24T10:45:32.745Z,-94
2016-11-24T10:46:32.871Z,-94
2016-11-24T10:47:32.748Z,-94
2016-11-24T10:48:32.402Z,-93
2016-11-24T10:49:32.505Z,-93
2016-11-24T10:50:33.071Z,-94
2016-11-24T10:51:33.606Z,-94
2016-11-24T10:52:33.846Z,-94
2016-11-24T10:53:33.495Z,-93
2016-11-24T10:54:33.525Z,-94
2016-11-24T10:55:33.298Z,-94
2016-11-24T10:56:32.508Z,-94
2016-11-24T10:57:32.421Z,-94
2016-11-24T10:58:32.703Z,-94
2016-11-24T10:59:32.514Z,-94
2016-11-24T11:00:32.552Z,-94
2016-11-24T11:01:32.258Z,-94
2016-11-24T11:02:32.466Z,-93
2016-11-24T11:03:33.706Z,-93
2016-11-24T11:04:32.639Z,-94
2016-11-24T11:05:32.589Z,-94
2016-11-24T11:06:32.674Z,-94
2016-11-24T11:07:32.639Z,-93
2016-11-24T11:08:33.363Z,-93
2016-11-24T11:09:33.360Z,-92
2016-11-24T11:10:32.585Z,-94
2016-11-24T11:11:32.529Z,-93
2016-11-24T11:12:32.609Z,-94
2016-11-24T11:13:32.485Z,-93
2016-11-24T11:14:33.202Z,-94
2016-11-24T11:15:32.865Z,-92
2016-11-24T11:16:32.320Z,-94
2016-11-24T11:17:32.735Z,-94
2016-11-24T11:18:32.653Z,-92
2016-11-24T11:19:32.664Z,-95
2016-11-24T11:20:36.204Z,-94
2016-11-24T11:21:32.687Z,-94
2016-11-24T11:22:32.412Z,-93
2016-11-24T11:23:32.907Z,-94
2016-11-24T11:24:32.590Z,-94
2016-11-24T11:25:32.740Z,-93
2016-11-24T11:26:32.734Z,-92
2016-11-24T11:27:32.604Z,-93
2016-11-24T11:28:32.639Z,-94
2016-11-24T11:29:33.510Z,-94
2016-11-24T11:30:32.908Z,-94
2016-11-24T11:31:32.564Z,-94
2016-11-24T11:32:32.494Z,-94
2016-11-24T11:33:32.677Z,-94
2016-11-24T11:34:32.513Z,-92
2016-11-24T11:35:32.568Z,-94
2016-11-24T11:36:32.756Z,-94
2016-11-24T11:37:32.765Z,-94
2016-11-24T11:38:34.055Z,-93
2016-11-24T11:39:32.620Z,-93
2016-11-24T11:40:32.636Z,-92
2016-11-24T11:41:33.053Z,-93
2016-11-24T11:42:33.523Z,-93
2016-11-24T11:43:32.756Z,-92
2016-11-24T11:44:32.716Z,-92
2016-11-24T11:45:32.750Z,-92
2016-11-24T11:46:32.359Z,-93
2016-11-24T11:47:32.529Z,-92
2016-11-24T11:48:32.563Z,-93
2016-11-24T11:49:33.311Z,-92
2016-11-24T11:50:32.472Z,-93
2016-11-24T11:51:32.552Z,-93
2016-11-24T11:52:32.633Z,-93
2016-11-24T11:53:32.846Z,-92
2016-11-24T11:54:32.644Z,-91
2016-11-24T11:55:33.798Z,-93
2016-11-24T11:56:32.597Z,-93
2016-11-24T11:57:32.983Z,-92
2016-11-24T11:58:32.714Z,-93
2016-11-24T11:59:32.935Z,-94
2016-11-24T12:00:32.801Z,-94
2016-11-24T12:01:33.010Z,-94
2016-11-24T12:02:32.767Z,-94
2016-11-24T12:03:32.634Z,-94
2016-11-24T12:04:32.503Z,-93
2016-11-24T12:05:32.804Z,-95
2016-11-24T12:06:32.552Z,-95
2016-11-24T12:07:32.696Z,-95
2016-11-24T12:08:32.690Z,-96
2016-11-24T12:09:32.654Z,-94
2016-11-24T12:10:32.613Z,-95
2016-11-24T12:11:32.860Z,-96
2016-11-24T12:12:33.048Z,-95
2016-11-24T12:13:32.930Z,-94
2016-11-24T12:14:34.531Z,-95
2016-11-24T12:15:32.765Z,-96
2016-11-24T12:16:33.163Z,-95
2016-11-24T12:17:32.969Z,-96
2016-11-24T12:18:32.664Z,-96
2016-11-24T12:19:32.744Z,-96
2016-11-24T12:20:32.802Z,-96
2016-11-24T12:21:33.828Z,-96
2016-11-24T12:22:32.727Z,-96
2016-11-24T12:23:32.652Z,-96
2016-11-24T12:24:33.129Z,-95
2016-11-24T12:25:33.815Z,-96
2016-11-24T12:26:35.928Z,-96
2016-11-24T12:27:32.844Z,-95
2016-11-24T12:28:32.992Z,-95
2016-11-24T12:29:32.813Z,-94
2016-11-24T12:30:32.763Z,-95
2016-11-24T12:31:32.688Z,-94
2016-11-24T12:32:33.044Z,-96
2016-11-24T12:33:33.020Z,-95
2016-11-24T12:34:38.999Z,-94
2016-11-24T12:35:35.454Z,-93
2016-11-24T12:36:33.961Z,-93
2016-11-24T12:37:34.801Z,-93
2016-11-24T12:38:37.118Z,-93
2016-11-24T12:39:34.290Z,-94
2016-11-24T12:40:32.774Z,-94
2016-11-24T12:41:33.058Z,-93
2016-11-24T12:42:33.018Z,-91
2016-11-24T12:43:32.744Z,-91
2016-11-24T12:44:33.013Z,-93
2016-11-24T12:45:32.917Z,-91
2016-11-24T12:46:32.640Z,-92
2016-11-24T12:47:33.095Z,-94
2016-11-24T12:48:32.877Z,-93
2016-11-24T12:49:32.860Z,-93
2016-11-24T12:50:32.823Z,-94
2016-11-24T12:51:32.741Z,-92
2016-11-24T12:52:32.950Z,-93
2016-11-24T12:53:33.565Z,-93
2016-11-24T12:54:33.640Z,-94
2016-11-24T12:55:33.120Z,-95
2016-11-24T12:56:32.762Z,-95
2016-11-24T12:57:33.177Z,-96
2016-11-24T12:58:32.834Z,-96
2016-11-24T12:59:32.760Z,-95
2016-11-24T13:00:32.622Z,-94
2016-11-24T13:01:33.013Z,-94
2016-11-24T13:02:33.055Z,-93
2016-11-24T13:03:33.018Z,-96
2016-11-24T13:04:33.682Z,-94
2016-11-24T13:05:34.210Z,-95
2016-11-24T13:06:32.855Z,-95
2016-11-24T13:07:33.229Z,-96
2016-11-24T13:08:32.690Z,-95
2016-11-24T13:09:33.036Z,-96
2016-11-24T13:10:33.162Z,-94
2016-11-24T13:11:33.607Z,-95
2016-11-24T13:12:33.449Z,-96
2016-11-24T13:13:33.368Z,-95
2016-11-24T13:14:33.131Z,-94
2016-11-24T13:15:33.051Z,-95
2016-11-24T13:16:32.887Z,-96
2016-11-24T13:17:32.890Z,-95
2016-11-24T13:18:32.980Z,-96
2016-11-24T13:19:33.038Z,-95
2016-11-24T13:20:33.200Z,-95
2016-11-24T13:21:32.842Z,-95
2016-11-24T13:22:33.065Z,-95
2016-11-24T13:23:33.085Z,-95
2016-11-24T13:24:33.116Z,-94
2016-11-24T13:25:33.938Z,-94
2016-11-24T13:26:33.447Z,-94
2016-11-24T13:27:33.097Z,-92
2016-11-24T13:28:34.537Z,-94
2016-11-24T13:29:33.621Z,-94
2016-11-24T13:30:32.848Z,-94
2016-11-24T13:31:32.865Z,-93
2016-11-24T13:32:32.969Z,-95
2016-11-24T13:33:33.153Z,-93
2016-11-24T13:34:32.955Z,-94
2016-11-24T13:35:33.450Z,-94
2016-11-24T13:36:32.883Z,-93
2016-11-24T13:37:33.041Z,-95
2016-11-24T13:38:38.041Z,-95
2016-11-24T13:39:33.037Z,-94
2016-11-24T13:40:33.221Z,-95
2016-11-24T13:41:33.647Z,-95
2016-11-24T13:42:33.027Z,-93
2016-11-24T13:43:32.877Z,-94
2016-11-24T13:44:33.835Z,-93
2016-11-24T13:45:34.021Z,-94
2016-11-24T13:46:32.980Z,-93